Terminal Aerodrome Forecast
Issued by NWS Austin/San Antonio, TX

Current Version | Previous Version | Text Only | Print | Product List | Glossary Off
Versions: 1 2 3 4 5 6 7 8 9 10 11 12 13 14 15 16 17 18 19 20 21 22 23 24 25 26 27 28 29 30 31

893
FTUS44 KEWX 251331 AAA
TAFSAT
TAF AMD
KSAT 251331Z 2514/2618 10004KT P6SM OVC006
     FM251430 13009KT P6SM VCSH BKN012
     FM251730 14010KT P6SM VCSH BKN040
     FM260500 13008KT P6SM OVC030
     FM261100 12008KT P6SM OVC009=

USA.gov is the U.S. government's official web portal to all federal, state and local government web resources and services.